^^
Meteo Knjazevac Station Historical Data
Daily Summary for August 05, 2020 Units:  Both    English   Metric
Daily Weekly Monthly Yearly Custom
  High: Low: Average:
Temperature: 71.4 °F /  21.9 °C 60.1 °F /  15.6 °C 65.4 °F /  18.6 °C
Dew Point: 69.9 °F /  21.1 °C 59.8 °F /  15.4 °C 64.8 °F /  18.2 °C
Humidity: 99% 89% 98%
Wind Speed: 10mph /  16.1km/h - 2.5mph /  4km/h
Wind Gust: 16mph /  25.7km/h - -
Wind- - South
Pressure: 29.99 in /  1015.5 hPa 29.83 in /  1010 hPa -
Precipitation: 1.22 in /  30.99 mm    
Historical Graphs
 
 
Tabular Data for August 05, 2020
Time Temperature Dew Point Pressure Wind Wind Speed Wind Gust Humidity Rainfall Rate (Hourly) solar Conditions
00:00 68.5 °F /  20.3 °C 68 °F /  20 °C 29.86in /  1011.1hPa NW 8mph /  12.9km/h 10mph /  16.1km/h 98% 0.00in /  0mm 0 W/m2
00:10 68.5 °F /  20.3 °C 68 °F /  20 °C 29.86in /  1011.1hPa WNW 10mph /  16.1km/h 12mph /  19.3km/h 98% 0.00in /  0mm 0 W/m2
00:20 68.4 °F /  20.2 °C 68.1 °F /  20.1 °C 29.87in /  1011.4hPa NW 2mph /  3.2km/h 12mph /  19.3km/h 99% 0.01in /  0.25mm 0 W/m2
00:30 68.3 °F /  20.2 °C 67.8 °F /  19.9 °C 29.88in /  1011.7hPa SSE 1mph /  1.6km/h 4mph /  6.4km/h 98% 0.02in /  0.51mm 0 W/m2
00:40 68.2 °F /  20.1 °C 67.6 °F /  19.8 °C 29.88in /  1011.7hPa ESE 1mph /  1.6km/h 5mph /  8km/h 98% 0.01in /  0.25mm 0 W/m2
00:50 68 °F /  20 °C 67.7 °F /  19.8 °C 29.87in /  1011.4hPa SE 1mph /  1.6km/h 5mph /  8km/h 99% 0.00in /  0mm 0 W/m2
01:00 68 °F /  20 °C 67.7 °F /  19.8 °C 29.88in /  1011.7hPa ESE 2mph /  3.2km/h 5mph /  8km/h 99% 0.00in /  0mm 0 W/m2
01:10 68 °F /  20 °C 67.7 °F /  19.8 °C 29.88in /  1011.7hPa ESE 3mph /  4.8km/h 5mph /  8km/h 99% 0.00in /  0mm 0 W/m2
01:20 68.2 °F /  20.1 °C 67.9 °F /  19.9 °C 29.87in /  1011.4hPa ESE 3mph /  4.8km/h 5mph /  8km/h 99% 0.00in /  0mm 0 W/m2
01:30 68.2 °F /  20.1 °C 67.9 °F /  19.9 °C 29.86in /  1011.1hPa ESE 3mph /  4.8km/h 5mph /  8km/h 99% 0.00in /  0mm 0 W/m2
01:40 68.2 °F /  20.1 °C 67.9 °F /  19.9 °C 29.85in /  1010.7hPa ESE 3mph /  4.8km/h 6mph /  9.7km/h 99% 0.00in /  0mm 0 W/m2
01:50 68 °F /  20 °C 67.7 °F /  19.8 °C 29.84in /  1010.4hPa ESE 3mph /  4.8km/h 8mph /  12.9km/h 99% 0.00in /  0mm 0 W/m2
02:00 67.8 °F /  19.9 °C 67.5 °F /  19.7 °C 29.83in /  1010hPa ESE 2mph /  3.2km/h 8mph /  12.9km/h 99% 0.00in /  0mm 0 W/m2
02:10 67.8 °F /  19.9 °C 67.5 °F /  19.7 °C 29.84in /  1010.4hPa West 1mph /  1.6km/h 5mph /  8km/h 99% 0.00in /  0mm 0 W/m2
02:20 67.6 °F /  19.8 °C 67.3 °F /  19.6 °C 29.84in /  1010.4hPa WNW 2mph /  3.2km/h 7mph /  11.3km/h 99% 0.00in /  0mm 0 W/m2
02:30 67.6 °F /  19.8 °C 67.3 °F /  19.6 °C 29.84in /  1010.4hPa NW 3mph /  4.8km/h 5mph /  8km/h 99% 0.00in /  0mm 0 W/m2
02:40 67.6 °F /  19.8 °C 67.3 °F /  19.6 °C 29.84in /  1010.4hPa NW 3mph /  4.8km/h 7mph /  11.3km/h 99% 0.00in /  0mm 0 W/m2
02:50 67.4 °F /  19.7 °C 67.2 °F /  19.6 °C 29.84in /  1010.4hPa WNW 2mph /  3.2km/h 7mph /  11.3km/h 99% 0.00in /  0mm 0 W/m2
03:00 67.3 °F /  19.6 °C 67 °F /  19.4 °C 29.85in /  1010.7hPa NE 2mph /  3.2km/h 5mph /  8km/h 99% 0.00in /  0mm 0 W/m2
03:10 67.3 °F /  19.6 °C 67 °F /  19.4 °C 29.84in /  1010.4hPa NE 2mph /  3.2km/h 6mph /  9.7km/h 99% 0.00in /  0mm 0 W/m2
03:20 67.3 °F /  19.6 °C 67 °F /  19.4 °C 29.84in /  1010.4hPa ENE 3mph /  4.8km/h 5mph /  8km/h 99% 0.00in /  0mm 0 W/m2
03:30 67.3 °F /  19.6 °C 67 °F /  19.4 °C 29.85in /  1010.7hPa NE 3mph /  4.8km/h 6mph /  9.7km/h 99% 0.00in /  0mm 0 W/m2
03:40 67.4 °F /  19.7 °C 67.2 °F /  19.6 °C 29.85in /  1010.7hPa NE 3mph /  4.8km/h 5mph /  8km/h 99% 0.00in /  0mm 0 W/m2
03:50 67.3 °F /  19.6 °C 67 °F /  19.4 °C 29.86in /  1011.1hPa ENE 1mph /  1.6km/h 4mph /  6.4km/h 99% 0.00in /  0mm 0 W/m2
04:00 67.3 °F /  19.6 °C 67 °F /  19.4 °C 29.85in /  1010.7hPa NE 2mph /  3.2km/h 5mph /  8km/h 99% 0.00in /  0mm 0 W/m2
04:10 67.3 °F /  19.6 °C 67 °F /  19.4 °C 29.86in /  1011.1hPa ENE 2mph /  3.2km/h 5mph /  8km/h 99% 0.00in /  0mm 0 W/m2
04:20 67.3 °F /  19.6 °C 67 °F /  19.4 °C 29.86in /  1011.1hPa East 2mph /  3.2km/h 3mph /  4.8km/h 99% 0.00in /  0mm 0 W/m2
04:30 67.1 °F /  19.5 °C 66.8 °F /  19.3 °C 29.86in /  1011.1hPa East 1mph /  1.6km/h 2mph /  3.2km/h 99% 0.00in /  0mm 0 W/m2
04:40 66.9 °F /  19.4 °C 66.6 °F /  19.2 °C 29.86in /  1011.1hPa East 2mph /  3.2km/h 3mph /  4.8km/h 99% 0.00in /  0mm 0 W/m2
04:50 66.7 °F /  19.3 °C 66.5 °F /  19.2 °C 29.86in /  1011.1hPa ENE 2mph /  3.2km/h 3mph /  4.8km/h 99% 0.00in /  0mm 0 W/m2
05:00 66.7 °F /  19.3 °C 66.5 °F /  19.2 °C 29.86in /  1011.1hPa East 2mph /  3.2km/h 2mph /  3.2km/h 99% 0.00in /  0mm 0 W/m2
05:10 66.4 °F /  19.1 °C 66.1 °F /  18.9 °C 29.86in /  1011.1hPa NW 2mph /  3.2km/h 5mph /  8km/h 99% 0.00in /  0mm 0 W/m2
05:20 66.2 °F /  19 °C 65.9 °F /  18.8 °C 29.87in /  1011.4hPa NW 2mph /  3.2km/h 5mph /  8km/h 99% 0.00in /  0mm 0 W/m2
05:30 66 °F /  18.9 °C 65.7 °F /  18.7 °C 29.87in /  1011.4hPa North 2mph /  3.2km/h 5mph /  8km/h 99% 0.00in /  0mm 3 W/m2
05:40 66 °F /  18.9 °C 65.7 °F /  18.7 °C 29.87in /  1011.4hPa North 1mph /  1.6km/h 3mph /  4.8km/h 99% 0.00in /  0mm 7 W/m2
05:50 65.8 °F /  18.8 °C 65.6 °F /  18.7 °C 29.88in /  1011.7hPa NE 1mph /  1.6km/h 2mph /  3.2km/h 99% 0.00in /  0mm 16 W/m2
06:00 65.7 °F /  18.7 °C 65.4 °F /  18.6 °C 29.88in /  1011.7hPa NE 1mph /  1.6km/h 5mph /  8km/h 99% 0.00in /  0mm 26 W/m2
06:10 65.7 °F /  18.7 °C 65.4 °F /  18.6 °C 29.88in /  1011.7hPa ENE 1mph /  1.6km/h 5mph /  8km/h 99% 0.00in /  0mm 31 W/m2
06:20 65.7 °F /  18.7 °C 65.4 °F /  18.6 °C 29.88in /  1011.7hPa Calm   2mph /  3.2km/h 99% 0.00in /  0mm 39 W/m2
06:30 65.7 °F /  18.7 °C 65.4 °F /  18.6 °C 29.88in /  1011.7hPa North 1mph /  1.6km/h 3mph /  4.8km/h 99% 0.00in /  0mm 36 W/m2
06:40 65.7 °F /  18.7 °C 65.4 °F /  18.6 °C 29.88in /  1011.7hPa NNE 1mph /  1.6km/h 3mph /  4.8km/h 99% 0.00in /  0mm 47 W/m2
06:50 65.7 °F /  18.7 °C 65.4 °F /  18.6 °C 29.88in /  1011.7hPa NE 1mph /  1.6km/h 2mph /  3.2km/h 99% 0.00in /  0mm 49 W/m2
07:00 65.8 °F /  18.8 °C 65.6 °F /  18.7 °C 29.87in /  1011.4hPa NE 1mph /  1.6km/h 2mph /  3.2km/h 99% 0.00in /  0mm 71 W/m2
07:10 66 °F /  18.9 °C 65.7 °F /  18.7 °C 29.88in /  1011.7hPa WSW 2mph /  3.2km/h 3mph /  4.8km/h 99% 0.00in /  0mm 168 W/m2
07:20 66.2 °F /  19 °C 65.9 °F /  18.8 °C 29.89in /  1012.1hPa West 1mph /  1.6km/h 4mph /  6.4km/h 99% 0.00in /  0mm 57 W/m2
07:30 66.4 °F /  19.1 °C 66.1 °F /  18.9 °C 29.89in /  1012.1hPa NE 1mph /  1.6km/h 4mph /  6.4km/h 99% 0.00in /  0mm 17 W/m2
07:40 66.4 °F /  19.1 °C 66.1 °F /  18.9 °C 29.91in /  1012.8hPa ESE 3mph /  4.8km/h 7mph /  11.3km/h 99% 0.00in /  0mm 7 W/m2
07:50 66.4 °F /  19.1 °C 66.1 °F /  18.9 °C 29.90in /  1012.4hPa NNE 2mph /  3.2km/h 7mph /  11.3km/h 99% 0.05in /  1.27mm 11 W/m2
08:00 66.2 °F /  19 °C 65.9 °F /  18.8 °C 29.89in /  1012.1hPa North 9mph /  14.5km/h 15mph /  24.1km/h 99% 0.16in /  4.06mm 66 W/m2
08:10 66 °F /  18.9 °C 65.7 °F /  18.7 °C 29.89in /  1012.1hPa North 8mph /  12.9km/h 15mph /  24.1km/h 99% 0.13in /  3.3mm 48 W/m2
08:20 66 °F /  18.9 °C 65.7 °F /  18.7 °C 29.89in /  1012.1hPa North 9mph /  14.5km/h 16mph /  25.7km/h 99% 0.08in /  2.03mm 97 W/m2
08:30 66 °F /  18.9 °C 65.7 °F /  18.7 °C 29.89in /  1012.1hPa NNE 5mph /  8km/h 14mph /  22.5km/h 99% 0.00in /  0mm 92 W/m2
08:40 66.4 °F /  19.1 °C 66.1 °F /  18.9 °C 29.90in /  1012.4hPa North 6mph /  9.7km/h 10mph /  16.1km/h 99% 0.00in /  0mm 227 W/m2
08:50 66.6 °F /  19.2 °C 66.3 °F /  19.1 °C 29.90in /  1012.4hPa North 6mph /  9.7km/h 6mph /  9.7km/h 99% 0.00in /  0mm 156 W/m2
09:00 66.7 °F /  19.3 °C 66.5 °F /  19.2 °C 29.90in /  1012.4hPa NNW 3mph /  4.8km/h 7mph /  11.3km/h 99% 0.00in /  0mm 178 W/m2
09:10 66.9 °F /  19.4 °C 66.6 °F /  19.2 °C 29.90in /  1012.4hPa West 6mph /  9.7km/h 7mph /  11.3km/h 99% 0.00in /  0mm 244 W/m2
09:20 67.3 °F /  19.6 °C 67 °F /  19.4 °C 29.90in /  1012.4hPa WSW 8mph /  12.9km/h 10mph /  16.1km/h 99% 0.02in /  0.51mm 408 W/m2
09:30 68 °F /  20 °C 67.7 °F /  19.8 °C 29.90in /  1012.4hPa WSW 7mph /  11.3km/h 12mph /  19.3km/h 99% 0.00in /  0mm 634 W/m2
09:40 69.1 °F /  20.6 °C 68.8 °F /  20.4 °C 29.89in /  1012.1hPa NW 8mph /  12.9km/h 13mph /  20.9km/h 99% 0.00in /  0mm 699 W/m2
09:50 70.2 °F /  21.2 °C 69.9 °F /  21.1 °C 29.89in /  1012.1hPa NE 8mph /  12.9km/h 13mph /  20.9km/h 99% 0.00in /  0mm 564 W/m2
10:00 70.9 °F /  21.6 °C 69.1 °F /  20.6 °C 29.89in /  1012.1hPa NNW 5mph /  8km/h 12mph /  19.3km/h 94% 0.00in /  0mm 745 W/m2
10:10 70.9 °F /  21.6 °C 68.8 °F /  20.4 °C 29.89in /  1012.1hPa North 7mph /  11.3km/h 12mph /  19.3km/h 93% 0.00in /  0mm 637 W/m2
10:20 71.1 °F /  21.7 °C 68.3 °F /  20.2 °C 29.90in /  1012.4hPa WNW 9mph /  14.5km/h 12mph /  19.3km/h 91% 0.00in /  0mm 560 W/m2
10:30 71.1 °F /  21.7 °C 68.9 °F /  20.5 °C 29.90in /  1012.4hPa NE 5mph /  8km/h 12mph /  19.3km/h 93% 0.00in /  0mm 350 W/m2
10:40 71.2 °F /  21.8 °C 68.5 °F /  20.3 °C 29.90in /  1012.4hPa NE 7mph /  11.3km/h 12mph /  19.3km/h 91% 0.00in /  0mm 360 W/m2
10:50 71.4 °F /  21.9 °C 68.7 °F /  20.4 °C 29.90in /  1012.4hPa NE 1mph /  1.6km/h 10mph /  16.1km/h 91% 0.00in /  0mm 307 W/m2
11:00 71.4 °F /  21.9 °C 68 °F /  20 °C 29.90in /  1012.4hPa SSW 2mph /  3.2km/h 6mph /  9.7km/h 89% 0.00in /  0mm 259 W/m2
11:10 71.2 °F /  21.8 °C 67.8 °F /  19.9 °C 29.91in /  1012.8hPa SW 2mph /  3.2km/h 5mph /  8km/h 89% 0.00in /  0mm 135 W/m2
11:20 70.9 °F /  21.6 °C 67.8 °F /  19.9 °C 29.92in /  1013.1hPa SW 3mph /  4.8km/h 8mph /  12.9km/h 90% 0.00in /  0mm 26 W/m2
11:30 69.6 °F /  20.9 °C 66.2 °F /  19 °C 29.92in /  1013.1hPa SW 5mph /  8km/h 12mph /  19.3km/h 89% 0.00in /  0mm 29 W/m2
11:40 68.8 °F /  20.4 °C 65.8 °F /  18.8 °C 29.93in /  1013.4hPa SW 2mph /  3.2km/h 8mph /  12.9km/h 90% 0.00in /  0mm 16 W/m2
11:50 68.2 °F /  20.1 °C 65.1 °F /  18.4 °C 29.94in /  1013.8hPa WSW 5mph /  8km/h 10mph /  16.1km/h 90% 0.00in /  0mm 9 W/m2
12:00 67.6 °F /  19.8 °C 64.3 °F /  17.9 °C 29.95in /  1014.1hPa WSW 3mph /  4.8km/h 10mph /  16.1km/h 89% 0.00in /  0mm 9 W/m2
12:10 67 °F /  19.4 °C 64 °F /  17.8 °C 29.95in /  1014.1hPa WSW 5mph /  8km/h 13mph /  20.9km/h 90% 0.01in /  0.25mm 14 W/m2
12:20 65.8 °F /  18.8 °C 63.5 °F /  17.5 °C 29.96in /  1014.4hPa SW 5mph /  8km/h 10mph /  16.1km/h 92% 0.00in /  0mm 12 W/m2
12:30 65.1 °F /  18.4 °C 63.3 °F /  17.4 °C 29.96in /  1014.4hPa SW 5mph /  8km/h 7mph /  11.3km/h 94% 0.02in /  0.51mm 19 W/m2
12:40 64.8 °F /  18.2 °C 63.3 °F /  17.4 °C 29.96in /  1014.4hPa SW 2mph /  3.2km/h 6mph /  9.7km/h 95% 0.01in /  0.25mm 20 W/m2
12:50 64.6 °F /  18.1 °C 63.7 °F /  17.6 °C 29.97in /  1014.8hPa SE 2mph /  3.2km/h 5mph /  8km/h 97% 0.03in /  0.76mm 30 W/m2
13:00 64.5 °F /  18.1 °C 64 °F /  17.8 °C 29.97in /  1014.8hPa South 1mph /  1.6km/h 4mph /  6.4km/h 98% 0.03in /  0.76mm 51 W/m2
13:10 64.4 °F /  18 °C 64.1 °F /  17.8 °C 29.97in /  1014.8hPa South 1mph /  1.6km/h 5mph /  8km/h 99% 0.02in /  0.51mm 53 W/m2
13:20 64.2 °F /  17.9 °C 63.9 °F /  17.7 °C 29.97in /  1014.8hPa ESE 1mph /  1.6km/h 5mph /  8km/h 99% 0.02in /  0.51mm 53 W/m2
13:30 64.2 °F /  17.9 °C 63.9 °F /  17.7 °C 29.96in /  1014.4hPa Calm   8mph /  12.9km/h 99% 0.03in /  0.76mm 117 W/m2
13:40 64.2 °F /  17.9 °C 63.9 °F /  17.7 °C 29.96in /  1014.4hPa ESE 3mph /  4.8km/h 7mph /  11.3km/h 99% 0.03in /  0.76mm 94 W/m2
13:50 64.2 °F /  17.9 °C 63.9 °F /  17.7 °C 29.96in /  1014.4hPa SSE 2mph /  3.2km/h 7mph /  11.3km/h 99% 0.00in /  0mm 129 W/m2
14:00 64 °F /  17.8 °C 63.8 °F /  17.7 °C 29.97in /  1014.8hPa SE 2mph /  3.2km/h 5mph /  8km/h 99% 0.01in /  0.25mm 127 W/m2
14:10 64.2 °F /  17.9 °C 63.9 °F /  17.7 °C 29.96in /  1014.4hPa SE 2mph /  3.2km/h 7mph /  11.3km/h 99% 0.00in /  0mm 215 W/m2
14:20 64.6 °F /  18.1 °C 64.3 °F /  17.9 °C 29.96in /  1014.4hPa SE 1mph /  1.6km/h 4mph /  6.4km/h 99% 0.00in /  0mm 96 W/m2
14:30 64.6 °F /  18.1 °C 64.3 °F /  17.9 °C 29.96in /  1014.4hPa ESE 2mph /  3.2km/h 5mph /  8km/h 99% 0.00in /  0mm 71 W/m2
14:40 64.8 °F /  18.2 °C 64.5 °F /  18.1 °C 29.96in /  1014.4hPa ESE 2mph /  3.2km/h 6mph /  9.7km/h 99% 0.00in /  0mm 96 W/m2
14:50 64.8 °F /  18.2 °C 64.5 °F /  18.1 °C 29.97in /  1014.8hPa SE 2mph /  3.2km/h 9mph /  14.5km/h 99% 0.00in /  0mm 47 W/m2
15:00 64.8 °F /  18.2 °C 64.5 °F /  18.1 °C 29.97in /  1014.8hPa SSE 2mph /  3.2km/h 8mph /  12.9km/h 99% 0.00in /  0mm 56 W/m2
15:10 64.6 °F /  18.1 °C 64.3 °F /  17.9 °C 29.97in /  1014.8hPa South 2mph /  3.2km/h 7mph /  11.3km/h 99% 0.00in /  0mm 50 W/m2
15:20 64.6 °F /  18.1 °C 64.3 °F /  17.9 °C 29.98in /  1015.1hPa South 2mph /  3.2km/h 6mph /  9.7km/h 99% 0.01in /  0.25mm 41 W/m2
15:30 64.6 °F /  18.1 °C 64.3 °F /  17.9 °C 29.98in /  1015.1hPa South 3mph /  4.8km/h 6mph /  9.7km/h 99% 0.03in /  0.76mm 36 W/m2
15:40 64.4 °F /  18 °C 64.1 °F /  17.8 °C 29.99in /  1015.5hPa SW 2mph /  3.2km/h 6mph /  9.7km/h 99% 0.03in /  0.76mm 30 W/m2
15:50 64.2 °F /  17.9 °C 63.9 °F /  17.7 °C 29.99in /  1015.5hPa SSW 2mph /  3.2km/h 7mph /  11.3km/h 99% 0.03in /  0.76mm 20 W/m2
16:00 64 °F /  17.8 °C 63.8 °F /  17.7 °C 29.99in /  1015.5hPa ESE 2mph /  3.2km/h 5mph /  8km/h 99% 0.05in /  1.27mm 21 W/m2
16:10 63.7 °F /  17.6 °C 63.4 °F /  17.4 °C 29.99in /  1015.5hPa ESE 3mph /  4.8km/h 6mph /  9.7km/h 99% 0.05in /  1.27mm 18 W/m2
16:20 63.5 °F /  17.5 °C 63.2 °F /  17.3 °C 29.99in /  1015.5hPa ESE 5mph /  8km/h 8mph /  12.9km/h 99% 0.04in /  1.02mm 19 W/m2
16:30 63.3 °F /  17.4 °C 63 °F /  17.2 °C 29.99in /  1015.5hPa East 1mph /  1.6km/h 7mph /  11.3km/h 99% 0.06in /  1.52mm 19 W/m2
16:40 63.1 °F /  17.3 °C 62.8 °F /  17.1 °C 29.99in /  1015.5hPa ESE 5mph /  8km/h 12mph /  19.3km/h 99% 0.05in /  1.27mm 21 W/m2
16:50 62.9 °F /  17.2 °C 62.6 °F /  17 °C 29.98in /  1015.1hPa ESE 2mph /  3.2km/h 8mph /  12.9km/h 99% 0.05in /  1.27mm 26 W/m2
17:00 62.8 °F /  17.1 °C 62.5 °F /  16.9 °C 29.97in /  1014.8hPa ENE 2mph /  3.2km/h 6mph /  9.7km/h 99% 0.07in /  1.78mm 32 W/m2
17:10 62.6 °F /  17 °C 62.3 °F /  16.8 °C 29.97in /  1014.8hPa NE 2mph /  3.2km/h 4mph /  6.4km/h 99% 0.04in /  1.02mm 43 W/m2
17:20 62.6 °F /  17 °C 62.3 °F /  16.8 °C 29.96in /  1014.4hPa North 1mph /  1.6km/h 5mph /  8km/h 99% 0.02in /  0.51mm 67 W/m2
17:30 62.8 °F /  17.1 °C 62.5 °F /  16.9 °C 29.94in /  1013.8hPa NNW 2mph /  3.2km/h 6mph /  9.7km/h 99% 0.00in /  0mm 78 W/m2
17:40 62.8 °F /  17.1 °C 62.5 °F /  16.9 °C 29.93in /  1013.4hPa NNW 2mph /  3.2km/h 5mph /  8km/h 99% 0.00in /  0mm 65 W/m2
17:50 62.8 °F /  17.1 °C 62.5 °F /  16.9 °C 29.94in /  1013.8hPa NNW 1mph /  1.6km/h 3mph /  4.8km/h 99% 0.00in /  0mm 54 W/m2
18:00 62.8 °F /  17.1 °C 62.5 °F /  16.9 °C 29.93in /  1013.4hPa NNW 1mph /  1.6km/h 3mph /  4.8km/h 99% 0.00in /  0mm 46 W/m2
18:10 62.6 °F /  17 °C 62.3 °F /  16.8 °C 29.92in /  1013.1hPa WNW 3mph /  4.8km/h 5mph /  8km/h 99% 0.00in /  0mm 69 W/m2
18:20 62.7 °F /  17.1 °C 62.4 °F /  16.9 °C 29.92in /  1013.1hPa West 3mph /  4.8km/h 7mph /  11.3km/h 99% 0.00in /  0mm 72 W/m2
18:30 62.8 °F /  17.1 °C 62.5 °F /  16.9 °C 29.92in /  1013.1hPa West 3mph /  4.8km/h 10mph /  16.1km/h 99% 0.00in /  0mm 65 W/m2
18:40 62.8 °F /  17.1 °C 62.5 °F /  16.9 °C 29.93in /  1013.4hPa West 2mph /  3.2km/h 10mph /  16.1km/h 99% 0.00in /  0mm 64 W/m2
18:50 63 °F /  17.2 °C 62.7 °F /  17.1 °C 29.93in /  1013.4hPa WNW 3mph /  4.8km/h 6mph /  9.7km/h 99% 0.00in /  0mm 52 W/m2
19:00 63 °F /  17.2 °C 62.7 °F /  17.1 °C 29.94in /  1013.8hPa WNW 2mph /  3.2km/h 5mph /  8km/h 99% 0.00in /  0mm 35 W/m2
19:10 63 °F /  17.2 °C 62.7 °F /  17.1 °C 29.93in /  1013.4hPa WNW 2mph /  3.2km/h 5mph /  8km/h 99% 0.00in /  0mm 19 W/m2
19:20 63 °F /  17.2 °C 62.7 °F /  17.1 °C 29.94in /  1013.8hPa WNW 2mph /  3.2km/h 4mph /  6.4km/h 99% 0.00in /  0mm 14 W/m2
19:30 63 °F /  17.2 °C 62.7 °F /  17.1 °C 29.94in /  1013.8hPa NW 1mph /  1.6km/h 3mph /  4.8km/h 99% 0.00in /  0mm 10 W/m2
19:40 63 °F /  17.2 °C 62.7 °F /  17.1 °C 29.94in /  1013.8hPa Calm   3mph /  4.8km/h 99% 0.00in /  0mm 6 W/m2
19:50 62.8 °F /  17.1 °C 62.5 °F /  16.9 °C 29.94in /  1013.8hPa West 1mph /  1.6km/h 3mph /  4.8km/h 99% 0.00in /  0mm 0 W/m2
20:00 62.8 °F /  17.1 °C 62.5 °F /  16.9 °C 29.94in /  1013.8hPa Calm   3mph /  4.8km/h 99% 0.00in /  0mm 0 W/m2
20:10 62.6 °F /  17 °C 62.3 °F /  16.8 °C 29.94in /  1013.8hPa WNW 1mph /  1.6km/h 2mph /  3.2km/h 99% 0.00in /  0mm 0 W/m2
20:20 62.6 °F /  17 °C 62.3 °F /  16.8 °C 29.94in /  1013.8hPa North 1mph /  1.6km/h 2mph /  3.2km/h 99% 0.00in /  0mm 0 W/m2
20:30 62.6 °F /  17 °C 62.3 °F /  16.8 °C 29.94in /  1013.8hPa North 2mph /  3.2km/h 2mph /  3.2km/h 99% 0.00in /  0mm 0 W/m2
20:40 62.4 °F /  16.9 °C 62.1 °F /  16.7 °C 29.94in /  1013.8hPa Calm   2mph /  3.2km/h 99% 0.00in /  0mm 0 W/m2
20:50 62.3 °F /  16.8 °C 62.1 °F /  16.7 °C 29.95in /  1014.1hPa Calm   2mph /  3.2km/h 99% 0.00in /  0mm 0 W/m2
21:00 62.2 °F /  16.8 °C 62 °F /  16.7 °C 29.95in /  1014.1hPa NE 3mph /  4.8km/h 5mph /  8km/h 99% 0.00in /  0mm 0 W/m2
21:10 62.2 °F /  16.8 °C 62 °F /  16.7 °C 29.96in /  1014.4hPa East 1mph /  1.6km/h 5mph /  8km/h 99% 0.00in /  0mm 0 W/m2
21:20 62.2 °F /  16.8 °C 61.9 °F /  16.6 °C 29.96in /  1014.4hPa ENE 1mph /  1.6km/h 5mph /  8km/h 99% 0.00in /  0mm 0 W/m2
21:30 62.1 °F /  16.7 °C 61.8 °F /  16.6 °C 29.96in /  1014.4hPa Calm   3mph /  4.8km/h 99% 0.00in /  0mm 0 W/m2
21:40 61.9 °F /  16.6 °C 61.6 °F /  16.4 °C 29.96in /  1014.4hPa Calm   2mph /  3.2km/h 99% 0.00in /  0mm 0 W/m2
21:50 61.9 °F /  16.6 °C 61.6 °F /  16.4 °C 29.95in /  1014.1hPa NW 2mph /  3.2km/h 4mph /  6.4km/h 99% 0.00in /  0mm 0 W/m2
22:00 61.9 °F /  16.6 °C 61.6 °F /  16.4 °C 29.96in /  1014.4hPa Calm   2mph /  3.2km/h 99% 0.00in /  0mm 0 W/m2
22:10 61.7 °F /  16.5 °C 61.4 °F /  16.3 °C 29.95in /  1014.1hPa Calm   2mph /  3.2km/h 99% 0.00in /  0mm 0 W/m2
22:20 61.6 °F /  16.4 °C 61.3 °F /  16.3 °C 29.95in /  1014.1hPa Calm   1mph /  1.6km/h 99% 0.00in /  0mm 0 W/m2
22:30 61.5 °F /  16.4 °C 61.2 °F /  16.2 °C 29.95in /  1014.1hPa Calm   2mph /  3.2km/h 99% 0.00in /  0mm 0 W/m2
22:40 61.3 °F /  16.3 °C 61.1 °F /  16.2 °C 29.95in /  1014.1hPa WNW 3mph /  4.8km/h 5mph /  8km/h 99% 0.00in /  0mm 0 W/m2
22:50 61.2 °F /  16.2 °C 60.9 °F /  16.1 °C 29.95in /  1014.1hPa WNW 2mph /  3.2km/h 5mph /  8km/h 99% 0.00in /  0mm 0 W/m2
23:00 61 °F /  16.1 °C 60.7 °F /  15.9 °C 29.95in /  1014.1hPa West 1mph /  1.6km/h 5mph /  8km/h 99% 0.00in /  0mm 0 W/m2
23:10 60.7 °F /  15.9 °C 60.4 °F /  15.8 °C 29.95in /  1014.1hPa West 2mph /  3.2km/h 5mph /  8km/h 99% 0.00in /  0mm 0 W/m2
23:20 60.4 °F /  15.8 °C 60.2 °F /  15.7 °C 29.95in /  1014.1hPa Calm   5mph /  8km/h 99% 0.00in /  0mm 0 W/m2
23:30 60.4 °F /  15.8 °C 60.1 °F /  15.6 °C 29.95in /  1014.1hPa Calm   1mph /  1.6km/h 99% 0.00in /  0mm 0 W/m2
23:40 60.1 °F /  15.6 °C 59.8 °F /  15.4 °C 29.95in /  1014.1hPa ESE 1mph /  1.6km/h 5mph /  8km/h 99% 0.00in /  0mm 0 W/m2
23:50 60.1 °F /  15.6 °C 59.8 °F /  15.4 °C 29.96in /  1014.4hPa Calm   3mph /  4.8km/h 99% 0.00in /  0mm 0 W/m2
Knjazevac, Serbia
Compliments of Weather Underground - 2 mb